createdAt,value
2022-11-03T00:02:12.990Z,20.10
2022-11-03T00:04:42.095Z,16.95
2022-11-03T00:07:10.338Z,19.85
2022-11-03T00:09:38.717Z,17.52
2022-11-03T00:12:08.376Z,16.42
2022-11-03T00:14:36.398Z,20.42
2022-11-03T00:17:04.788Z,19.35
2022-11-03T00:19:32.838Z,16.90
2022-11-03T00:22:00.846Z,16.70
2022-11-03T00:24:29.391Z,17.02
2022-11-03T00:26:57.238Z,16.23
2022-11-03T00:29:27.300Z,17.30
2022-11-03T00:31:55.603Z,15.80
2022-11-03T00:34:23.902Z,14.77
2022-11-03T00:36:51.917Z,16.05
2022-11-03T00:39:19.809Z,18.20
2022-11-03T00:41:48.518Z,17.95
2022-11-03T00:44:16.620Z,19.27
2022-11-03T00:46:45.545Z,21.48
2022-11-03T00:49:13.503Z,22.25
2022-11-03T00:51:41.470Z,16.73
2022-11-03T00:54:09.564Z,14.93
2022-11-03T00:56:39.821Z,15.65
2022-11-03T00:59:09.325Z,16.38
2022-11-03T01:01:46.774Z,17.98
2022-11-03T01:04:36.309Z,16.45
2022-11-03T01:07:06.277Z,14.80
2022-11-03T01:09:38.924Z,15.02
2022-11-03T01:12:17.070Z,14.25
2022-11-03T01:14:44.956Z,13.73
2022-11-03T01:17:24.784Z,28.65
2022-11-03T01:19:54.252Z,24.73
2022-11-03T01:22:23.945Z,21.13
2022-11-03T01:24:52.214Z,16.65
2022-11-03T01:27:22.318Z,17.55
2022-11-03T01:29:50.893Z,16.30
2022-11-03T01:32:19.063Z,14.75
2022-11-03T01:34:47.711Z,12.70
2022-11-03T01:37:15.645Z,14.70
2022-11-03T01:39:43.575Z,13.82
2022-11-03T01:42:14.644Z,14.63
2022-11-03T01:44:46.886Z,17.02
2022-11-03T01:47:27.680Z,14.23
2022-11-03T01:50:10.357Z,12.88
2022-11-03T01:52:47.575Z,12.70
2022-11-03T01:55:22.705Z,14.70
2022-11-03T01:58:02.283Z,15.00
2022-11-03T02:00:30.780Z,15.75
2022-11-03T02:03:00.301Z,15.20
2022-11-03T02:05:30.315Z,13.23
2022-11-03T02:08:19.948Z,13.15
2022-11-03T02:10:49.786Z,17.45
2022-11-03T02:13:26.764Z,14.43
2022-11-03T02:16:15.846Z,16.25
2022-11-03T02:18:45.428Z,14.32
2022-11-03T02:21:30.323Z,13.65
2022-11-03T02:24:15.851Z,14.20
2022-11-03T02:26:49.101Z,16.35
2022-11-03T02:32:12.208Z,13.98
2022-11-03T02:34:46.663Z,13.05
2022-11-03T02:37:23.697Z,12.90
2022-11-03T02:40:06.647Z,12.38
2022-11-03T02:42:37.078Z,13.38
2022-11-03T02:45:13.330Z,11.43
2022-11-03T02:47:46.624Z,13.02
2022-11-03T02:50:14.541Z,14.80
2022-11-03T02:52:46.736Z,15.07
2022-11-03T02:55:30.141Z,15.27
2022-11-03T03:00:33.075Z,15.20
2022-11-03T03:03:09.182Z,14.27
2022-11-03T03:05:41.148Z,15.10
2022-11-03T03:08:12.172Z,16.42
2022-11-03T03:10:43.923Z,21.70
2022-11-03T03:13:17.700Z,19.02
2022-11-03T03:16:20.867Z,14.88
2022-11-03T03:19:08.606Z,16.30
2022-11-03T03:21:45.056Z,12.93
2022-11-03T03:24:25.691Z,13.25
2022-11-03T03:26:59.398Z,13.07
2022-11-03T03:29:33.539Z,12.55
2022-11-03T03:32:06.683Z,12.80
2022-11-03T03:34:37.760Z,14.15
2022-11-03T03:37:07.991Z,12.77
2022-11-03T03:39:39.125Z,14.18
2022-11-03T03:42:10.817Z,14.77
2022-11-03T03:44:40.688Z,18.92
2022-11-03T03:47:18.248Z,18.08
2022-11-03T03:49:46.246Z,14.82
2022-11-03T03:52:15.241Z,13.93
2022-11-03T03:54:43.576Z,15.77
2022-11-03T03:57:26.076Z,12.27
2022-11-03T03:59:54.186Z,11.07
2022-11-03T04:02:22.411Z,13.07
2022-11-03T04:04:50.799Z,14.40
2022-11-03T04:07:42.497Z,15.18
2022-11-03T04:10:11.773Z,17.53
2022-11-03T04:13:02.800Z,13.93
2022-11-03T04:15:51.015Z,12.20
2022-11-03T04:18:39.887Z,11.65
2022-11-03T04:21:31.428Z,12.82
2022-11-03T04:24:00.573Z,16.17
2022-11-03T04:26:29.105Z,17.20
2022-11-03T04:28:58.853Z,14.63
2022-11-03T04:31:36.622Z,16.55
2022-11-03T04:34:10.416Z,19.30
2022-11-03T04:36:38.819Z,14.27
2022-11-03T04:39:20.242Z,15.68
2022-11-03T04:41:48.795Z,13.75
2022-11-03T04:44:17.930Z,15.10
2022-11-03T04:46:47.278Z,13.52
2022-11-03T04:49:22.222Z,12.35
2022-11-03T04:51:50.669Z,15.15
2022-11-03T04:54:23.788Z,13.60
2022-11-03T04:56:52.487Z,13.35
2022-11-03T04:59:20.481Z,12.85
2022-11-03T05:01:49.378Z,15.20
2022-11-03T05:04:18.494Z,12.98
2022-11-03T05:06:56.319Z,13.18
2022-11-03T05:09:28.174Z,13.98
2022-11-03T05:11:57.407Z,14.25
2022-11-03T05:14:30.895Z,14.15
2022-11-03T05:17:01.900Z,13.95
2022-11-03T05:19:34.234Z,17.17
2022-11-03T05:22:04.351Z,17.80
2022-11-03T05:24:33.877Z,17.02
2022-11-03T05:27:01.850Z,14.80
2022-11-03T05:29:38.788Z,14.43
2022-11-03T05:32:35.031Z,12.93
2022-11-03T05:35:04.527Z,15.98
2022-11-03T05:37:35.747Z,14.60
2022-11-03T05:40:24.649Z,15.60
2022-11-03T05:43:02.874Z,14.15
2022-11-03T05:45:34.582Z,13.13
2022-11-03T05:48:06.867Z,14.93
2022-11-03T05:50:35.763Z,13.30
2022-11-03T05:53:30.403Z,15.27
2022-11-03T05:56:04.726Z,15.65
2022-11-03T05:58:37.004Z,13.90
2022-11-03T06:01:15.574Z,19.02
2022-11-03T06:03:44.036Z,17.10
2022-11-03T06:06:31.782Z,15.85
2022-11-03T06:09:03.720Z,14.23
2022-11-03T06:11:37.814Z,17.83
2022-11-03T06:14:24.801Z,18.75
2022-11-03T06:16:59.765Z,15.88
2022-11-03T06:19:33.367Z,15.23
2022-11-03T06:22:35.420Z,18.13
2022-11-03T06:25:23.274Z,13.88
2022-11-03T06:27:52.535Z,15.15
2022-11-03T06:30:30.544Z,17.60
2022-11-03T06:33:01.786Z,16.67
2022-11-03T06:35:29.752Z,21.33
2022-11-03T06:37:59.570Z,12.88
2022-11-03T06:40:35.123Z,23.35
2022-11-03T06:43:24.966Z,23.25
2022-11-03T06:45:57.768Z,25.45
2022-11-03T06:48:29.261Z,19.63
2022-11-03T06:50:59.247Z,18.73
2022-11-03T06:53:34.056Z,15.77
2022-11-03T06:56:02.871Z,19.13
2022-11-03T06:58:36.940Z,12.90
2022-11-03T07:01:16.096Z,19.63
2022-11-03T07:03:45.347Z,18.55
2022-11-03T07:06:31.858Z,15.80
2022-11-03T07:09:02.528Z,14.25
2022-11-03T07:11:57.765Z,15.75
2022-11-03T07:14:30.253Z,14.68
2022-11-03T07:17:01.547Z,15.98
2022-11-03T07:19:41.875Z,17.05
2022-11-03T07:22:22.986Z,12.85
2022-11-03T07:24:54.410Z,11.90
2022-11-03T07:27:27.561Z,15.75
2022-11-03T07:30:26.805Z,12.60
2022-11-03T07:33:01.094Z,11.50
2022-11-03T07:36:13.047Z,13.32
2022-11-03T07:38:30.722Z,14.75
2022-11-03T07:41:00.626Z,13.63
2022-11-03T07:43:30.097Z,20.73
2022-11-03T07:46:01.844Z,14.77
2022-11-03T07:48:46.437Z,10.38
2022-11-03T07:51:30.017Z,12.60
2022-11-03T07:54:28.682Z,12.32
2022-11-03T07:57:02.114Z,10.23
2022-11-03T07:59:44.358Z,10.40
2022-11-03T08:02:36.237Z,12.38
2022-11-03T08:05:04.739Z,12.75
2022-11-03T08:07:33.659Z,13.10
2022-11-03T08:10:01.736Z,14.85
2022-11-03T08:12:31.839Z,15.55
2022-11-03T08:15:00.575Z,13.75
2022-11-03T08:17:28.733Z,14.25
2022-11-03T08:19:57.484Z,12.80
2022-11-03T08:22:26.273Z,14.63
2022-11-03T08:24:54.337Z,15.90
2022-11-03T08:27:22.783Z,18.95
2022-11-03T08:29:50.745Z,14.00
2022-11-03T08:32:19.277Z,19.35
2022-11-03T08:34:47.687Z,15.98
2022-11-03T08:37:15.900Z,14.02
2022-11-03T08:39:44.140Z,11.98
2022-11-03T08:42:13.197Z,16.35
2022-11-03T08:44:41.900Z,16.90
2022-11-03T08:47:10.016Z,14.38
2022-11-03T08:49:38.489Z,17.95
2022-11-03T08:52:06.916Z,15.32
2022-11-03T08:54:35.380Z,12.73
2022-11-03T08:57:03.592Z,15.48
2022-11-03T08:59:31.729Z,12.80
2022-11-03T09:02:00.061Z,13.77
2022-11-03T09:04:34.394Z,14.77
2022-11-03T09:07:02.919Z,17.30
2022-11-03T09:12:19.250Z,14.52
2022-11-03T09:14:48.385Z,14.95
2022-11-03T09:17:17.368Z,18.27
2022-11-03T09:19:45.432Z,16.48
2022-11-03T09:22:13.850Z,14.65
2022-11-03T09:24:42.034Z,13.75
2022-11-03T09:27:11.407Z,12.50
2022-11-03T09:30:06.723Z,12.52
2022-11-03T09:32:29.341Z,15.82
2022-11-03T09:34:57.375Z,12.52
2022-11-03T09:37:25.634Z,16.17
2022-11-03T09:39:53.993Z,13.52
2022-11-03T09:42:23.125Z,13.05
2022-11-03T09:44:56.430Z,14.20
2022-11-03T09:47:29.484Z,10.77
2022-11-03T09:49:58.651Z,15.38
2022-11-03T09:52:27.246Z,14.43
2022-11-03T09:54:55.977Z,14.38
2022-11-03T09:57:27.070Z,15.52
2022-11-03T09:59:55.758Z,17.25
2022-11-03T10:02:28.873Z,16.25
2022-11-03T10:05:06.932Z,13.32
2022-11-03T10:07:39.477Z,18.05
2022-11-03T10:10:15.583Z,19.58
2022-11-03T10:12:44.269Z,18.67
2022-11-03T10:15:21.067Z,14.63
2022-11-03T10:17:52.888Z,16.70
2022-11-03T10:20:22.524Z,16.15
2022-11-03T10:22:55.517Z,16.48
2022-11-03T10:28:22.371Z,17.77
2022-11-03T10:33:41.440Z,20.83
2022-11-03T10:36:16.068Z,19.80
2022-11-03T10:38:45.123Z,17.27
2022-11-03T10:41:18.075Z,20.98
2022-11-03T10:44:11.770Z,18.20
2022-11-03T10:46:56.082Z,13.88
2022-11-03T10:49:25.208Z,14.93
2022-11-03T10:52:16.417Z,23.05
2022-11-03T10:54:45.100Z,17.25
2022-11-03T10:57:14.561Z,11.85
2022-11-03T10:59:45.824Z,13.93
2022-11-03T11:02:20.379Z,15.38
2022-11-03T11:04:49.815Z,12.85
2022-11-03T11:07:26.333Z,11.00
2022-11-03T11:09:55.416Z,10.27
2022-11-03T11:12:25.942Z,11.73
2022-11-03T11:14:59.547Z,11.65
2022-11-03T11:17:42.533Z,16.23
2022-11-03T11:20:21.646Z,15.23
2022-11-03T11:22:50.878Z,12.88
2022-11-03T11:25:19.766Z,13.15
2022-11-03T11:27:58.212Z,12.65
2022-11-03T11:30:30.284Z,11.32
2022-11-03T11:33:13.920Z,12.95
2022-11-03T11:35:42.368Z,12.90
2022-11-03T11:39:05.095Z,12.20
2022-11-03T11:42:10.666Z,12.38
2022-11-03T11:45:10.467Z,9.82
2022-11-03T11:47:47.210Z,9.15
2022-11-03T11:50:17.400Z,11.68
2022-11-03T11:52:59.778Z,9.15
2022-11-03T11:55:31.154Z,11.77
2022-11-03T11:58:02.018Z,11.20
2022-11-03T12:00:33.255Z,11.30
2022-11-03T12:03:04.042Z,10.05
2022-11-03T12:05:36.115Z,10.60
2022-11-03T12:08:18.856Z,8.68
2022-11-03T12:11:02.023Z,10.88
2022-11-03T12:13:53.055Z,12.80
2022-11-03T12:16:38.424Z,9.95
2022-11-03T12:19:35.920Z,11.65
2022-11-03T12:22:07.006Z,9.73
2022-11-03T12:24:50.557Z,11.52
2022-11-03T12:29:54.071Z,11.82
2022-11-03T12:32:33.463Z,9.93
2022-11-03T12:35:06.111Z,10.70
2022-11-03T12:37:35.425Z,11.00
2022-11-03T12:40:04.588Z,8.52
2022-11-03T12:42:33.125Z,11.15
2022-11-03T12:45:01.397Z,11.43
2022-11-03T12:47:32.453Z,10.45
2022-11-03T12:50:00.962Z,9.80
2022-11-03T12:52:29.432Z,11.80
2022-11-03T12:54:57.669Z,9.98
2022-11-03T12:57:26.154Z,10.95
2022-11-03T12:59:54.653Z,9.05
2022-11-03T13:02:23.166Z,10.90
2022-11-03T13:04:52.062Z,8.13
2022-11-03T13:07:26.816Z,10.90
2022-11-03T13:09:58.882Z,10.25
2022-11-03T13:12:33.182Z,10.20
2022-11-03T13:15:04.881Z,12.57
2022-11-03T13:17:51.911Z,10.85
2022-11-03T13:20:23.168Z,12.63
2022-11-03T13:22:52.404Z,12.23
2022-11-03T13:25:20.466Z,11.63
2022-11-03T13:27:53.932Z,12.18
2022-11-03T13:30:24.528Z,13.30
2022-11-03T13:32:53.863Z,16.27
2022-11-03T13:35:22.060Z,19.25
2022-11-03T13:37:50.561Z,11.55
2022-11-03T13:40:50.272Z,11.75
2022-11-03T13:43:08.047Z,10.07
2022-11-03T13:45:37.325Z,16.15
2022-11-03T13:51:19.148Z,10.07
2022-11-03T13:59:26.252Z,9.90
2022-11-03T14:04:44.926Z,10.38
2022-11-03T14:07:13.765Z,11.23
2022-11-03T14:09:42.249Z,14.45
2022-11-03T14:12:28.663Z,16.38
2022-11-03T14:15:11.530Z,15.20
2022-11-03T14:17:40.834Z,12.27
2022-11-03T14:20:12.215Z,16.13
2022-11-03T14:22:41.258Z,14.77
2022-11-03T14:25:10.154Z,13.73
2022-11-03T14:27:39.618Z,15.15
2022-11-03T14:30:08.221Z,14.73
2022-11-03T14:32:37.284Z,16.35
2022-11-03T14:35:05.934Z,17.17
2022-11-03T14:37:33.959Z,18.92
2022-11-03T14:40:03.208Z,20.80
2022-11-03T14:42:31.889Z,15.02
2022-11-03T14:44:59.929Z,19.38
2022-11-03T14:47:31.548Z,21.88
2022-11-03T14:49:59.527Z,15.45
2022-11-03T14:52:28.430Z,17.20
2022-11-03T14:54:56.919Z,15.93
2022-11-03T14:57:25.447Z,15.30
2022-11-03T14:59:53.888Z,21.80
2022-11-03T15:02:22.723Z,22.13
2022-11-03T15:04:50.811Z,19.95
2022-11-03T15:07:18.827Z,24.13
2022-11-03T15:09:47.227Z,26.90
2022-11-03T15:12:15.764Z,28.63
2022-11-03T15:14:44.514Z,25.58
2022-11-03T15:17:12.989Z,24.88
2022-11-03T15:19:41.390Z,27.00
2022-11-03T15:22:10.372Z,23.17
2022-11-03T15:27:27.384Z,24.17
2022-11-03T15:29:55.992Z,28.88
2022-11-03T15:32:24.356Z,28.00
2022-11-03T15:34:52.580Z,26.55
2022-11-03T15:37:20.759Z,26.08
2022-11-03T15:39:49.376Z,29.60
2022-11-03T15:42:18.528Z,31.95
2022-11-03T15:44:46.989Z,28.85
2022-11-03T15:47:15.135Z,30.63
2022-11-03T15:49:43.591Z,31.05
2022-11-03T15:52:11.678Z,32.42
2022-11-03T15:54:43.000Z,36.70
2022-11-03T15:57:11.324Z,28.85
2022-11-03T16:00:00.415Z,31.38
2022-11-03T16:02:41.564Z,33.75
2022-11-03T16:05:11.024Z,30.23
2022-11-03T16:07:40.115Z,33.60
2022-11-03T16:10:09.463Z,35.55
2022-11-03T16:12:37.651Z,30.95
2022-11-03T16:15:06.295Z,35.13
2022-11-03T16:17:34.986Z,39.90
2022-11-03T16:20:03.907Z,39.92
2022-11-03T16:22:31.970Z,37.13
2022-11-03T16:25:01.010Z,37.53
2022-11-03T16:27:32.405Z,38.00
2022-11-03T16:30:01.231Z,41.42
2022-11-03T16:32:31.424Z,31.95
2022-11-03T16:34:59.935Z,34.15
2022-11-03T16:37:29.372Z,31.23
2022-11-03T16:39:57.818Z,35.33
2022-11-03T16:42:26.010Z,36.95
2022-11-03T16:44:55.580Z,38.42
2022-11-03T16:47:27.122Z,50.80
2022-11-03T16:49:57.053Z,56.80
2022-11-03T16:52:26.317Z,51.60
2022-11-03T16:54:54.701Z,54.05
2022-11-03T16:57:23.395Z,54.25
2022-11-03T16:59:52.063Z,50.72
2022-11-03T17:02:20.760Z,43.58
2022-11-03T17:04:50.157Z,33.67
2022-11-03T17:07:18.291Z,32.45
2022-11-03T17:09:47.223Z,27.13
2022-11-03T17:12:16.088Z,32.03
2022-11-03T17:14:44.073Z,51.05
2022-11-03T17:17:12.191Z,38.17
2022-11-03T17:19:40.642Z,49.80
2022-11-03T17:22:09.721Z,57.30
2022-11-03T17:24:37.828Z,61.85
2022-11-03T17:27:17.862Z,48.40
2022-11-03T17:29:50.862Z,39.70
2022-11-03T17:32:39.642Z,42.72
2022-11-03T17:35:42.187Z,36.35
2022-11-03T17:38:16.748Z,40.33
2022-11-03T17:40:47.009Z,34.78
2022-11-03T17:43:24.296Z,39.90
2022-11-03T17:45:52.805Z,32.83
2022-11-03T17:48:23.301Z,36.65
2022-11-03T17:50:55.436Z,40.53
2022-11-03T17:53:25.534Z,39.63
2022-11-03T17:56:27.866Z,44.03
2022-11-03T17:58:46.905Z,59.58
2022-11-03T18:01:23.480Z,57.17
2022-11-03T18:03:54.902Z,62.17
2022-11-03T18:06:23.302Z,55.25
2022-11-03T18:08:51.464Z,57.70
2022-11-03T18:11:47.107Z,44.00
2022-11-03T18:14:16.168Z,40.72
2022-11-03T18:16:44.313Z,40.13
2022-11-03T18:19:14.268Z,29.92
2022-11-03T18:21:43.971Z,31.55
2022-11-03T18:24:18.268Z,32.92
2022-11-03T18:26:46.493Z,31.80
2022-11-03T18:29:14.470Z,34.33
2022-11-03T18:31:47.329Z,33.97
2022-11-03T18:34:21.632Z,41.70
2022-11-03T18:36:50.330Z,36.50
2022-11-03T18:39:29.935Z,32.53
2022-11-03T18:41:59.073Z,30.55
2022-11-03T18:44:29.749Z,24.58
2022-11-03T18:46:58.744Z,28.67
2022-11-03T18:49:27.718Z,29.35
2022-11-03T18:52:04.007Z,40.03
2022-11-03T18:54:35.649Z,41.25
2022-11-03T18:57:04.514Z,49.20
2022-11-03T18:59:37.125Z,61.92
2022-11-03T19:02:19.829Z,70.75
2022-11-03T19:04:49.401Z,78.53
2022-11-03T19:07:31.920Z,105.35
2022-11-03T19:10:01.248Z,97.65
2022-11-03T19:12:29.248Z,142.85
2022-11-03T19:14:57.954Z,125.72
2022-11-03T19:17:26.609Z,85.78
2022-11-03T19:19:55.627Z,82.60
2022-11-03T19:22:24.493Z,94.07
2022-11-03T19:24:52.554Z,70.75
2022-11-03T19:27:29.065Z,40.75
2022-11-03T19:29:58.263Z,38.58
2022-11-03T19:32:31.614Z,42.45
2022-11-03T19:37:36.294Z,41.42
2022-11-03T19:40:11.901Z,54.10
2022-11-03T19:42:39.953Z,47.90
2022-11-03T19:45:13.553Z,49.15
2022-11-03T19:50:35.339Z,40.05
2022-11-03T19:53:07.366Z,32.97
2022-11-03T19:55:38.785Z,31.77
2022-11-03T19:58:19.281Z,31.23
2022-11-03T20:00:48.709Z,32.22
2022-11-03T20:03:17.594Z,30.52
2022-11-03T20:05:49.666Z,31.20
2022-11-03T20:08:22.342Z,29.27
2022-11-03T20:10:52.857Z,33.97
2022-11-03T20:13:28.913Z,51.58
2022-11-03T20:16:01.123Z,39.42
2022-11-03T20:18:29.790Z,41.25
2022-11-03T20:20:58.424Z,52.05
2022-11-03T20:23:31.441Z,50.13
2022-11-03T20:26:00.123Z,61.55
2022-11-03T20:28:32.426Z,84.43
2022-11-03T20:31:03.975Z,88.83
2022-11-03T20:33:32.762Z,89.68
2022-11-03T20:36:02.621Z,52.95
2022-11-03T20:38:31.302Z,46.80
2022-11-03T20:41:04.380Z,49.15
2022-11-03T20:43:37.981Z,43.90
2022-11-03T20:46:35.968Z,43.90
2022-11-03T20:49:04.167Z,44.45
2022-11-03T20:51:35.534Z,45.08
2022-11-03T20:54:04.231Z,46.80
2022-11-03T20:56:32.551Z,68.53
2022-11-03T20:59:00.536Z,55.40
2022-11-03T21:01:33.482Z,53.40
2022-11-03T21:04:03.247Z,75.60
2022-11-03T21:06:33.459Z,75.15
2022-11-03T21:09:02.019Z,79.57
2022-11-03T21:11:39.928Z,58.72
2022-11-03T21:14:26.323Z,69.53
2022-11-03T21:17:12.877Z,64.22
2022-11-03T21:19:59.431Z,64.20
2022-11-03T21:22:57.687Z,70.68
2022-11-03T21:25:26.206Z,54.33
2022-11-03T21:27:54.991Z,58.17
2022-11-03T21:30:23.707Z,52.80
2022-11-03T21:32:51.738Z,61.30
2022-11-03T21:35:21.918Z,48.17
2022-11-03T21:37:50.595Z,49.95
2022-11-03T21:40:19.179Z,51.92
2022-11-03T21:43:06.371Z,43.20
2022-11-03T21:45:34.993Z,46.90
2022-11-03T21:48:22.355Z,51.33
2022-11-03T21:51:09.663Z,49.65
2022-11-03T21:53:38.126Z,49.90
2022-11-03T21:56:07.172Z,42.67
2022-11-03T21:58:37.337Z,48.38
2022-11-03T22:01:06.758Z,46.15
2022-11-03T22:03:35.694Z,48.03
2022-11-03T22:06:07.395Z,42.72
2022-11-03T22:08:36.002Z,49.28
2022-11-03T22:11:24.277Z,50.42
2022-11-03T22:13:56.095Z,50.38
2022-11-03T22:16:37.188Z,41.30
2022-11-03T22:19:40.172Z,41.47
2022-11-03T22:22:32.177Z,39.22
2022-11-03T22:25:19.331Z,40.97
2022-11-03T22:27:47.618Z,43.13
2022-11-03T22:30:34.839Z,44.65
2022-11-03T22:33:03.643Z,46.30
2022-11-03T22:35:50.117Z,45.97
2022-11-03T22:38:21.218Z,46.80
2022-11-03T22:41:08.520Z,38.95
2022-11-03T22:43:55.108Z,37.22
2022-11-03T22:46:23.943Z,31.75
2022-11-03T22:48:51.824Z,33.15
2022-11-03T22:51:19.778Z,40.40
2022-11-03T22:54:06.249Z,34.28
2022-11-03T22:56:35.219Z,37.60
2022-11-03T22:59:04.828Z,32.38
2022-11-03T23:01:33.019Z,31.23
2022-11-03T23:04:01.887Z,36.58
2022-11-03T23:06:35.450Z,27.27
2022-11-03T23:09:04.647Z,30.25
2022-11-03T23:11:34.033Z,27.13
2022-11-03T23:14:10.523Z,37.08
2022-11-03T23:16:45.452Z,27.95
2022-11-03T23:19:34.378Z,31.35
2022-11-03T23:22:02.404Z,33.55
2022-11-03T23:24:49.094Z,33.25
2022-11-03T23:27:17.454Z,37.13
2022-11-03T23:29:46.472Z,39.25
2022-11-03T23:32:14.496Z,37.17
2022-11-03T23:34:42.643Z,34.10
2022-11-03T23:37:10.598Z,33.08
2022-11-03T23:39:39.208Z,33.38
2022-11-03T23:42:08.800Z,34.30
2022-11-03T23:44:55.440Z,35.72
2022-11-03T23:47:41.708Z,33.03
2022-11-03T23:50:10.267Z,35.58
2022-11-03T23:52:38.965Z,34.00
2022-11-03T23:55:07.791Z,32.53
2022-11-03T23:57:55.084Z,27.13
